Reklama
Líbí se Vám tento web? Budeme velmi rádi, pokud přidáte hodnocení +1

Seznam meteostanic a jejich METAR

Vyhledat místa podle abecedy:
A B C D E F G H I J K L M N O P Q R S T U V W X Y Z

Filtrovat:

ID stanice:
a/nebo
Název místa (fulltext):
 
Místo (ID)Naposledy načteno 
Antwerp (EBAW) 21.06.2018 01:50 UTC Zobrazit METAR
EBAW 210150Z AUTO 27009KT 240V300 9999 // OVC012/// 17/15 Q1017
Apia (NSFA) 21.06.2018 02:00 UTC Zobrazit METAR
NSFA 210200Z 28010KT 9999 SCT020 SCT045 BKN140 28/24 Q1011
Aruba I (TNCA) 21.06.2018 02:00 UTC Zobrazit METAR
TNCA 210200Z 08016KT 9999 FEW018 27/24 Q1013 NOSIG
Ascension I. (FHAW) 15.06.2018 15:50 UTC Zobrazit METAR
FHAW 151550Z 14015KT 9999 FEW025 27/20 Q1016 BLU NOSIG
Ashgabat (UTAA) 21.06.2018 02:00 UTC Zobrazit METAR
UTAA 210200Z 16002KT 9999 FEW100 25/08 Q1011 R88/CLRD70 NOSIG
Asmara (HHAS) 03.02.2015 17:00 UTC Zobrazit METAR
HHAS 031700Z 27004KT CAVOK 15/06 Q1028 NOSIG
Astana (UACC) Zatím nenačteno  
Astrakhan (URWA) Zatím nenačteno  
Asuncion (SGAS) 21.06.2018 02:00 UTC Zobrazit METAR
SGAS 210200Z 07004KT CAVOK 21/17 Q1015
Athens (LGAV) 21.06.2018 01:50 UTC Zobrazit METAR
LGAV 210150Z VRB02KT CAVOK 24/11 Q1015 NOSIG
Baghdad (ORBS) 06.06.2012 04:00 UTC  
Bagram (KQSA) 11.05.2016 15:58 UTC Zobrazit METAR
KQSA 111558Z VRB06KT 9999 BKN140 21/09 A3000 RMK AO2A SLP070 T02080091 $
Bahrain (OBBI) 21.06.2018 02:00 UTC Zobrazit METAR
OBBI 210200Z 33013KT CAVOK 33/24 Q1001 NOSIG
Baku (UBBB) 21.06.2018 02:00 UTC Zobrazit METAR
UBBB 210200Z 17002KT CAVOK 21/14 Q1013 R88/CLRD// NOSIG
Bamako (GABS) 21.06.2018 02:00 UTC Zobrazit METAR
GABS 210200Z 23007KT CAVOK 28/22 Q1013 NOSIG
Bandar Seri Begawan (WBSB) 21.06.2018 02:00 UTC Zobrazit METAR
WBSB 210200Z 11003KT 9999 SCT016 BKN300 30/26 Q1012 NOSIG
Bangkok (VTBD) 21.06.2018 02:00 UTC Zobrazit METAR
VTBD 210200Z 22009KT 9999 FEW020 31/24 Q1010 NOSIG
Bangui (FEFF) 21.06.2018 02:00 UTC Zobrazit METAR
FEFF 210200Z 00000KT 8000 FEW004 23/23 Q1014 NOSIG
Banja Luka (LQBK) 21.06.2018 02:00 UTC Zobrazit METAR
LQBK 210200Z 18002KT CAVOK 18/17 Q1018 NOSIG
Banjul (GBYD) 21.06.2018 01:00 UTC Zobrazit METAR
GBYD 210100Z 22005KT 9999 FEW011 24/21 Q1015
Barbados (TBPB) 21.06.2018 02:00 UTC Zobrazit METAR
TBPB 210200Z 07014KT 9999 SCT022 26/22 Q1017 NOSIG
Barcelona (LEBL) 21.06.2018 02:00 UTC Zobrazit METAR
LEBL 210200Z 32008KT CAVOK 21/15 Q1018 NOSIG
Bari (LIBD) 21.06.2018 01:50 UTC Zobrazit METAR
LIBD 210150Z 23005KT CAVOK 20/20 Q1017
Basle-Mulhouse (LFSB) 21.06.2018 02:00 UTC Zobrazit METAR
LFSB 210200Z AUTO 24002KT CAVOK 16/16 Q1018 NOSIG
Basse-Terre (TFFB) Zatím nenačteno  
Basseterre (TKPK) 21.06.2018 01:00 UTC Zobrazit METAR
TKPK 210100Z 09013KT 9999 FEW019 27/23 Q1018
Beijing (ZBAA) Zatím nenačteno  
Beirut (OLBA) 21.06.2018 02:00 UTC Zobrazit METAR
OLBA 210200Z 14006KT 9999 BKN027 24/17 Q1015 NOSIG
Belfast (EGAA) 21.06.2018 01:50 UTC Zobrazit METAR
EGAA 210150Z 29014KT 9999 FEW025 SCT030 09/06 Q1025
Belgrade (LYBE) 21.06.2018 02:00 UTC Zobrazit METAR
LYBE 210200Z 22004KT CAVOK 21/19 Q1018 NOSIG
Belize City (MZBZ) 21.06.2018 02:00 UTC Zobrazit METAR
MZBZ 210200Z 11007KT 9999 FEW019 28/25 A2988 Q1012 NOSIG
Bergen (ENBR) 20.06.2018 21:50 UTC Zobrazit METAR
ENBR 202150Z 34004KT 9999 FEW030 08/05 Q1010 RMK WIND 1200FT 32015KT
Berlin (EDDT) 21.06.2018 01:50 UTC Zobrazit METAR
EDDT 210150Z VRB01KT CAVOK 16/14 Q1013
Bermuda Is (TXKF) 21.06.2018 01:55 UTC Zobrazit METAR
TXKF 210155Z 22011KT 9999 FEW023 SCT120 BKN300 26/22 Q1015
Bern (LSZB) 21.06.2018 01:50 UTC Zobrazit METAR
LSZB 210150Z AUTO VRB02KT 9999 FEW050 15/14 Q1019
Billund (EKBI) 16.06.2018 17:50 UTC Zobrazit METAR
EKBI 161750Z 10005KT 9999 FEW017 BKN030 15/14 Q1012
Birmingham (EGBB) 21.06.2018 01:50 UTC Zobrazit METAR
EGBB 210150Z 30008KT CAVOK 11/06 Q1022
Bishkek (UAFM) Zatím nenačteno  
Bissau (GGOV) 20.06.2018 23:00 UTC Zobrazit METAR
GGOV 202300Z 26004KT CAVOK 26/22 Q1016 NOSIG
Bogota (SKBO) 21.06.2018 02:00 UTC Zobrazit METAR
SKBO 210200Z 32004KT 9999 BKN018 11/09 A3040
Bologna (LIPE) 21.06.2018 01:50 UTC Zobrazit METAR
LIPE 210150Z 20006KT CAVOK 20/15 Q1018
Bordeaux (LFBD) 21.06.2018 02:00 UTC Zobrazit METAR
LFBD 210200Z AUTO 24004KT CAVOK 21/19 Q1017 BECMG BKN005
Bornholm (EKRN) 17.06.2018 12:50 UTC Zobrazit METAR
EKRN 171250Z 26012KT 9999 SCT010 19/15 Q1014
Brasilia (SBBR) 21.06.2018 02:00 UTC Zobrazit METAR
SBBR 210200Z 13004KT CAVOK 17/12 Q1024
Bratislava (LZIB) 21.06.2018 02:00 UTC Zobrazit METAR
LZIB 210200Z 35003KT CAVOK 18/15 Q1017
Brazzaville (FCBB) 21.06.2018 02:00 UTC Zobrazit METAR
FCBB 210200Z 27003KT 240V320 7000 FEW023 21/19 Q1016 NOSIG
Bremen (EDDW) 21.06.2018 01:50 UTC Zobrazit METAR
EDDW 210150Z 25006KT 9999 FEW040 15/14 Q1013
Brest (UMBB) Zatím nenačteno  
Brest (LFRB) 21.06.2018 02:00 UTC Zobrazit METAR
LFRB 210200Z AUTO 02010KT 9999 BKN008 BKN020 13/13 Q1024 TEMPO 3000 DZ BECMG SCT006
Brno (LKTB) 21.06.2018 02:00 UTC Zobrazit METAR
LKTB 210200Z 00000KT CAVOK 18/13 Q1017 NOSIG
Předchozí 1 2 3 4 ... 9 Další
Reklama

Počasí na Váš email

Emaily jsou bez reklamy a bez spamu



Odhlásit newsletter

Reklama


Lunární kalendář

  • 28.06.
  • 06.07.
  • 13.07.
  • 19.07.



Slunečno.cz na Google+

Reklama


Reklama
Povinné ručení
Reklama




Reklama